Terminal Aerodrome Forecast
Issued by NWS

Home | Current Version | Previous Version | Text Only | Print | Product List | Glossary On
Versions: 1 2 3 4 5 6 7 8 9 10 11 12 13 14
000
FTUS45 KABQ 291434 AAA
TAFLVS
TAF AMD
KLVS 291434Z 2915/3012 18010KT P6SM SCT027
      TEMPO 2915/2916 BKN027
     FM291700 19012G20KT P6SM SCT090
     FM292100 22014G20KT P6SM VCTS BKN080CB
      TEMPO 2921/2924 VRB20G30KT -SHRA BKN060
     FM300000 19013KT P6SM VCSH SCT080 BKN120
     FM300400 34006KT P6SM SCT080 BKN130=

USA.gov is the U.S. government's official web portal to all federal, state and local government web resources and services.